Time;durP1;ratioP1;P1;durP2;ratioP2;P2;SDS_P1;SDS_P2;PMS_P1;PMS_P2;Temp;Humidity;BMP_temperature;BMP_pressure;BME280_temperature;BME280_humidity;BME280_pressure;Samples;Min_cycle;Max_cycle;Signal;HPM_P1;HPM_P2
2022/04/01 00:00:08;;;;;;;;;;;7.60;99.90;8.10;97731.00;;;;336485;28;82495;-89
2022/04/01 00:00:20;;;;;;;;;;;7.70;99.90;8.10;97726.00;;;;337351;28;92635;-88
2022/04/01 00:00:32;;;;;;;;;;;7.70;99.90;8.00;97722.00;;;;340079;28;83646;-89
2022/04/01 00:00:44;;;;;;;;;;;7.60;99.90;8.10;97732.00;;;;340105;28;91197;-89
2022/04/01 00:00:56;;;;;;;;;;;7.70;99.90;8.00;97731.00;;;;339035;28;82571;-89
2022/04/01 00:01:08;;;;;;;;;;;7.70;99.90;7.90;97721.00;;;;337507;28;90307;-89
2022/04/01 00:01:20;;;;;;;;;;;7.60;99.90;8.00;97721.00;;;;337768;28;83439;-88
2022/04/01 00:01:32;;;;;;;;;;;7.60;99.90;8.10;97720.00;;;;339634;28;92123;-88
2022/04/01 00:01:44;;;;;;;;;;;7.60;99.90;8.10;97725.00;;;;340478;28;82431;-89
2022/04/01 00:01:56;;;;;;;;;;;7.60;99.90;8.00;97732.00;;;;338478;28;91165;-89
2022/04/01 00:02:08;;;;;;;;;;;7.60;99.90;8.00;97732.00;;;;340469;28;82465;-89
2022/04/01 00:02:20;;;;;;;;;;;7.60;99.90;8.00;97728.00;;;;339914;28;91777;-89
2022/04/01 00:02:32;;;;;;;;;;;7.60;99.90;8.00;97723.00;;;;340479;28;82593;-89
2022/04/01 00:02:44;;;;;;;;;;;7.60;99.90;7.90;97731.00;;;;337478;28;90327;-89
2022/04/01 00:02:56;;;;;;;;;;;7.60;99.90;8.00;97728.00;;;;337842;28;83400;-89
2022/04/01 00:03:09;;;;;;;;;;;7.60;99.90;8.00;97724.00;;;;340154;28;91475;-88
2022/04/01 00:03:21;;;;;;;;;;;7.60;99.90;7.90;97727.00;;;;345940;28;82630;-89
2022/04/01 00:03:33;;;;;;;;;;;7.60;99.90;8.00;97728.00;;;;346245;28;90563;-88
2022/04/01 00:03:45;;;;;;;;;;;7.60;99.90;8.00;97730.00;;;;339847;28;82600;-89
2022/04/01 00:03:57;;;;;;;;;;;7.60;99.90;8.00;97724.00;;;;339265;28;90871;-89
2022/04/01 00:04:09;;;;;;;;;;;7.60;99.90;8.00;97728.00;;;;340469;28;83361;-89
2022/04/01 00:04:20;;;;;;;;;;;7.60;99.90;8.00;97733.00;;;;338685;28;92171;-89
2022/04/01 00:04:32;;;;;;;;;;;7.60;99.90;8.00;97730.00;;;;338810;28;83419;-89
2022/04/01 00:04:44;;;;;;;;;;;7.60;99.90;8.00;97731.00;;;;337271;28;91394;-89
2022/04/01 00:04:56;;;;;;;;;;;7.60;99.90;8.00;97734.00;;;;339123;28;83480;-89
2022/04/01 00:05:08;;;;;;;;;;;7.60;99.90;8.10;97726.00;;;;338679;28;90473;-88
2022/04/01 00:05:20;;;;;;;;;;;7.60;99.90;8.10;97727.00;;;;339255;28;83467;-88
2022/04/01 00:05:33;;;;;;;;;;;7.60;99.90;8.10;97725.00;;;;338680;28;91369;-89
2022/04/01 00:05:45;;;;;;;;;;;7.60;99.90;8.00;97727.00;;;;339161;28;83436;-89
2022/04/01 00:05:56;;;;;;;;;;;7.60;99.90;8.10;97721.00;;;;342641;28;90378;-89
2022/04/01 00:06:08;;;;;;;;;;;7.60;99.90;8.10;97729.00;;;;341667;28;83588;-89
2022/04/01 00:06:20;;;;;;;;;;;7.60;99.90;8.20;97720.00;;;;339965;28;91258;-89
2022/04/01 00:06:32;;;;;;;;;;;7.60;99.90;8.20;97733.00;;;;341557;28;82579;-89
2022/04/01 00:06:44;;;;;;;;;;;7.60;99.90;8.10;97726.00;;;;344167;28;91883;-89
2022/04/01 00:06:56;;;;;;;;;;;7.60;99.90;8.10;97740.00;;;;344582;28;83470;-89
2022/04/01 00:07:08;;;;;;;;;;;7.70;99.90;8.10;97728.00;;;;340092;28;91373;-89
2022/04/01 00:07:20;;;;;;;;;;;7.60;99.90;8.20;97728.00;;;;340427;28;83484;-89
2022/04/01 00:07:34;;;;;;;;;;;7.60;99.90;8.20;97734.00;;;;341220;28;90573;-89
2022/04/01 00:07:45;;;;;;;;;;;7.60;99.90;8.10;97735.00;;;;339144;28;83447;-89
2022/04/01 00:07:57;;;;;;;;;;;7.60;99.90;8.10;97730.00;;;;338702;28;90956;-89
2022/04/01 00:08:09;;;;;;;;;;;7.70;99.90;8.10;97729.00;;;;337821;28;83478;-89
2022/04/01 00:08:22;;;;;;;;;;;7.70;99.90;8.20;97728.00;;;;337237;28;91365;-89
2022/04/01 00:08:33;;;;;;;;;;;7.70;99.90;8.10;97729.00;;;;339096;28;82568;-89
2022/04/01 00:08:45;;;;;;;;;;;7.70;99.90;8.10;97733.00;;;;338689;28;91589;-89
2022/04/01 00:08:57;;;;;;;;;;;7.70;99.90;8.10;97732.00;;;;337871;28;83382;-89
2022/04/01 00:09:09;;;;;;;;;;;7.70;99.90;8.10;97733.00;;;;338733;28;92126;-89
2022/04/01 00:09:21;;;;;;;;;;;7.70;99.90;8.10;97727.00;;;;339182;28;82544;-89
2022/04/01 00:09:33;;;;;;;;;;;7.70;99.90;8.20;97726.00;;;;342361;28;91932;-88
2022/04/01 00:09:45;;;;;;;;;;;7.70;99.90;8.20;97732.00;;;;345036;28;83553;-89
2022/04/01 00:09:57;;;;;;;;;;;7.70;99.90;8.10;97735.00;;;;340832;28;91628;-89
2022/04/01 00:10:09;;;;;;;;;;;7.70;99.90;8.10;97739.00;;;;337766;28;82543;-89
2022/04/01 00:10:21;;;;;;;;;;;7.70;99.90;8.10;97734.00;;;;341322;28;92791;-89
2022/04/01 00:10:33;;;;;;;;;;;7.70;99.90;8.10;97728.00;;;;340023;28;82547;-89
2022/04/01 00:10:45;;;;;;;;;;;7.70;99.90;8.10;97731.00;;;;340056;28;90424;-89
2022/04/01 00:10:56;;;;;;;;;;;7.70;99.90;8.20;97727.00;;;;339136;28;83388;-89
2022/04/01 00:11:08;;;;;;;;;;;7.70;99.90;8.20;97727.00;;;;337507;28;90548;-89
2022/04/01 00:11:20;;;;;;;;;;;7.70;99.90;8.10;97728.00;;;;337765;28;83417;-89
2022/04/01 00:11:32;;;;;;;;;;;7.70;99.90;8.20;97737.00;;;;337422;28;91522;-89
2022/04/01 00:11:44;;;;;;;;;;;7.70;99.90;8.20;97737.00;;;;339178;28;83440;-89
2022/04/01 00:11:55;;;;;;;;;;;7.70;99.90;8.10;97723.00;;;;337416;28;91271;-89
2022/04/01 00:12:08;;;;;;;;;;;7.70;99.90;8.10;97729.00;;;;339225;28;83268;-89
2022/04/01 00:12:20;;;;;;;;;;;7.70;99.90;7.90;97732.00;;;;338746;28;89951;-89
2022/04/01 00:12:31;;;;;;;;;;;7.70;99.90;7.90;97736.00;;;;341293;28;82697;-89
2022/04/01 00:12:44;;;;;;;;;;;7.60;99.90;8.00;97733.00;;;;343229;28;89157;-89
2022/04/01 00:12:56;;;;;;;;;;;7.60;99.90;8.10;97736.00;;;;344500;28;83522;-89
2022/04/01 00:13:08;;;;;;;;;;;7.70;99.90;8.10;97731.00;;;;338711;28;91223;-89
2022/04/01 00:13:21;;;;;;;;;;;7.60;99.90;8.10;97737.00;;;;337837;28;83450;-89
2022/04/01 00:13:32;;;;;;;;;;;7.60;99.90;8.10;97732.00;;;;337496;28;91775;-89
2022/04/01 00:13:44;;;;;;;;;;;7.60;99.90;8.10;97733.00;;;;337872;28;83392;-89
2022/04/01 00:13:56;;;;;;;;;;;7.60;99.90;8.00;97737.00;;;;337398;28;90380;-89
2022/04/01 00:14:08;;;;;;;;;;;7.60;99.90;8.00;97734.00;;;;343420;28;83333;-89
2022/04/01 00:14:20;;;;;;;;;;;7.60;99.90;8.10;97729.00;;;;336031;28;92312;-89
2022/04/01 00:14:32;;;;;;;;;;;7.60;99.90;8.10;97722.00;;;;344728;28;83817;-89
2022/04/01 00:14:43;;;;;;;;;;;7.60;99.90;8.10;97740.00;;;;347029;27;91523;-89
2022/04/01 00:14:55;;;;;;;;;;;7.60;99.90;8.10;97739.00;;;;344804;28;82477;-89
2022/04/01 00:15:08;;;;;;;;;;;7.60;99.90;8.10;97735.00;;;;341277;28;90248;-88
2022/04/01 00:15:20;;;;;;;;;;;7.60;99.90;8.10;97730.00;;;;340507;28;82517;-89
2022/04/01 00:15:33;;;;;;;;;;;7.60;99.90;8.20;97735.00;;;;340123;28;90476;-89
2022/04/01 00:15:45;;;;;;;;;;;7.60;99.90;8.20;97735.00;;;;340170;28;82590;-89
2022/04/01 00:15:59;;;;;;;;;;;7.70;99.90;8.20;97738.00;;;;337072;28;89418;-89
2022/04/01 00:16:11;;;;;;;;;;;7.70;99.90;8.20;97729.00;;;;340513;28;83313;-89
2022/04/01 00:16:23;;;;;;;;;;;7.70;99.90;8.10;97736.00;;;;338663;28;92591;-89
2022/04/01 00:16:35;;;;;;;;;;;7.70;99.90;8.10;97734.00;;;;337837;28;83534;-89
2022/04/01 00:16:46;;;;;;;;;;;7.70;99.90;8.00;97730.00;;;;337365;28;90646;-88
2022/04/01 00:16:58;;;;;;;;;;;7.70;99.90;8.10;97729.00;;;;340502;28;83257;-89
2022/04/01 00:17:10;;;;;;;;;;;7.70;99.90;8.10;97727.00;;;;338689;28;90128;-89
2022/04/01 00:17:22;;;;;;;;;;;7.70;99.90;8.10;97728.00;;;;339268;28;82477;-89
2022/04/01 00:17:34;;;;;;;;;;;7.70;99.90;8.20;97734.00;;;;338765;28;90615;-89
2022/04/01 00:17:46;;;;;;;;;;;7.70;99.90;8.20;97730.00;;;;339154;28;83509;-89
2022/04/01 00:17:58;;;;;;;;;;;7.70;99.90;8.20;97733.00;;;;337363;28;90936;-89
2022/04/01 00:18:10;;;;;;;;;;;7.70;99.90;8.20;97733.00;;;;339132;28;82344;-89
2022/04/01 00:18:22;;;;;;;;;;;7.70;99.90;8.20;97733.00;;;;339502;28;91932;-89
2022/04/01 00:18:34;;;;;;;;;;;7.70;99.90;8.20;97734.00;;;;341845;28;83679;-89
2022/04/01 00:18:46;;;;;;;;;;;7.70;99.90;8.20;97730.00;;;;338707;28;91384;-89
2022/04/01 00:18:58;;;;;;;;;;;7.70;99.90;8.20;97737.00;;;;339423;28;82532;-89
2022/04/01 00:19:12;;;;;;;;;;;7.70;99.90;8.20;97738.00;;;;338713;28;91098;-89
2022/04/01 00:19:24;;;;;;;;;;;7.70;99.90;8.10;97739.00;;;;337708;28;82635;-89
2022/04/01 00:19:36;;;;;;;;;;;7.70;99.90;8.00;97732.00;;;;338865;28;90365;-89
2022/04/01 00:19:48;;;;;;;;;;;7.70;99.90;8.00;97740.00;;;;339263;28;83311;-89
2022/04/01 00:20:00;;;;;;;;;;;7.70;99.90;8.00;97733.00;;;;338701;28;90084;-89
2022/04/01 00:20:13;;;;;;;;;;;7.70;99.90;8.10;97731.00;;;;337776;28;83382;-89
2022/04/01 00:20:25;;;;;;;;;;;7.70;99.90;8.10;97732.00;;;;337368;28;93600;-89
2022/04/01 00:20:37;;;;;;;;;;;7.70;99.90;8.10;97732.00;;;;339152;28;83534;-89
2022/04/01 00:20:49;;;;;;;;;;;7.70;99.90;8.10;97739.00;;;;341350;28;91683;-89
2022/04/01 00:21:01;;;;;;;;;;;7.70;99.90;8.10;97731.00;;;;341848;28;82520;-89
2022/04/01 00:21:12;;;;;;;;;;;7.70;99.90;8.10;97735.00;;;;341284;28;88804;-89
2022/04/01 00:21:24;;;;;;;;;;;7.70;99.90;8.10;97730.00;;;;340676;28;82536;-89
2022/04/01 00:21:36;;;;;;;;;;;7.70;99.90;8.20;97727.00;;;;344181;28;90620;-89
2022/04/01 00:21:48;;;;;;;;;;;7.70;99.90;8.20;97738.00;;;;339114;28;83408;-89
2022/04/01 00:22:00;;;;;;;;;;;7.70;99.90;8.20;97722.00;;;;339853;28;91854;-89
2022/04/01 00:22:11;;;;;;;;;;;7.70;99.90;8.20;97731.00;;;;340442;28;83406;-89
2022/04/01 00:22:23;;;;;;;;;;;7.70;99.90;8.20;97730.00;;;;340104;28;88907;-89
2022/04/01 00:22:35;;;;;;;;;;;7.70;99.90;8.20;97732.00;;;;337803;28;83477;-89
2022/04/01 00:22:47;;;;;;;;;;;7.70;99.90;8.20;97735.00;;;;337263;28;91559;-89
2022/04/01 00:22:59;;;;;;;;;;;7.70;99.90;8.20;97737.00;;;;339178;28;83379;-89
2022/04/01 00:23:12;;;;;;;;;;;7.70;99.90;8.20;97730.00;;;;337357;28;90500;-89
2022/04/01 00:23:24;;;;;;;;;;;7.70;99.90;8.20;97737.00;;;;337631;28;82616;-89
2022/04/01 00:23:36;;;;;;;;;;;7.70;99.90;8.20;97736.00;;;;337372;28;90138;-89
2022/04/01 00:23:48;;;;;;;;;;;7.70;99.90;8.20;97729.00;;;;337787;28;82556;-89
2022/04/01 00:24:00;;;;;;;;;;;7.70;99.90;8.20;97723.00;;;;337394;28;90249;-89
2022/04/01 00:24:12;;;;;;;;;;;7.80;99.90;8.20;97732.00;;;;336520;28;83458;-89
2022/04/01 00:24:24;;;;;;;;;;;7.80;99.90;8.20;97733.00;;;;337251;28;92826;-89
2022/04/01 00:24:36;;;;;;;;;;;7.70;99.90;8.20;97727.00;;;;340352;28;83547;-89
2022/04/01 00:24:47;;;;;;;;;;;7.80;99.90;8.10;97735.00;;;;341312;28;92506;-89
2022/04/01 00:24:59;;;;;;;;;;;7.80;99.90;8.10;97739.00;;;;341369;28;83524;-89
2022/04/01 00:25:11;;;;;;;;;;;7.70;99.90;8.20;97738.00;;;;340040;28;91421;-89
2022/04/01 00:25:23;;;;;;;;;;;7.80;99.90;8.10;97731.00;;;;339098;28;83573;-88
2022/04/01 00:25:35;;;;;;;;;;;7.70;99.90;8.00;97736.00;;;;338750;28;91400;-89
2022/04/01 00:25:47;;;;;;;;;;;7.70;99.90;8.10;97734.00;;;;339164;28;83347;-89
2022/04/01 00:25:58;;;;;;;;;;;7.70;99.90;8.00;97737.00;;;;339906;28;91481;-89
2022/04/01 00:26:10;;;;;;;;;;;7.70;99.90;8.00;97736.00;;;;337832;28;83420;-89
2022/04/01 00:26:22;;;;;;;;;;;7.70;99.90;8.00;97741.00;;;;337416;28;90771;-90
2022/04/01 00:26:34;;;;;;;;;;;7.70;99.90;8.00;97727.00;;;;339080;28;82525;-89
2022/04/01 00:26:46;;;;;;;;;;;7.70;99.90;8.10;97733.00;;;;338728;28;90606;-89
2022/04/01 00:26:59;;;;;;;;;;;7.70;99.90;8.00;97735.00;;;;339028;28;83438;-89
2022/04/01 00:27:10;;;;;;;;;;;7.70;99.90;8.00;97733.00;;;;338723;28;90163;-89
2022/04/01 00:27:22;;;;;;;;;;;7.60;99.90;7.90;97740.00;;;;340457;28;83453;-89
2022/04/01 00:27:34;;;;;;;;;;;7.70;99.90;8.00;97735.00;;;;345014;27;91397;-89
2022/04/01 00:27:46;;;;;;;;;;;7.60;99.90;8.00;97740.00;;;;339180;28;82576;-89
2022/04/01 00:27:58;;;;;;;;;;;7.70;99.90;8.00;97743.00;;;;338606;28;90317;-89
2022/04/01 00:28:10;;;;;;;;;;;7.70;99.90;8.00;97741.00;;;;340546;28;82458;-89
2022/04/01 00:28:22;;;;;;;;;;;7.60;99.90;8.10;97744.00;;;;339912;28;92738;-89
2022/04/01 00:28:34;;;;;;;;;;;7.60;99.90;8.00;97733.00;;;;336315;28;82604;-89
2022/04/01 00:28:46;;;;;;;;;;;7.70;99.90;8.00;97734.00;;;;338679;28;91300;-89
2022/04/01 00:28:58;;;;;;;;;;;7.60;99.90;8.00;97742.00;;;;337802;28;82534;-89
2022/04/01 00:29:16;;;;;;;;;;;7.60;99.90;8.00;97736.00;;;;336130;28;90461;-89
2022/04/01 00:29:27;;;;;;;;;;;7.60;99.90;8.00;97737.00;;;;339103;28;83440;-89
2022/04/01 00:29:39;;;;;;;;;;;7.70;99.90;8.00;97737.00;;;;338617;28;90549;-89
2022/04/01 00:29:51;;;;;;;;;;;7.60;99.90;8.00;97739.00;;;;344704;28;83373;-88
2022/04/01 00:30:04;;;;;;;;;;;7.60;99.90;8.00;97731.00;;;;337366;28;91783;-89
2022/04/01 00:30:16;;;;;;;;;;;7.60;99.90;7.90;97744.00;;;;344584;28;83433;-88
2022/04/01 00:30:28;;;;;;;;;;;7.60;99.90;8.00;97744.00;;;;344900;28;92507;-89
2022/04/01 00:30:40;;;;;;;;;;;7.60;99.90;7.90;97739.00;;;;340348;28;82541;-89
2022/04/01 00:30:56;;;;;;;;;;;7.60;99.90;8.00;97747.00;;;;338541;28;91340;-89
2022/04/01 00:31:10;;;;;;;;;;;7.60;99.90;8.00;97740.00;;;;339113;28;83402;-89
2022/04/01 00:31:22;;;;;;;;;;;7.60;99.90;8.00;97737.00;;;;337250;28;90504;-89
2022/04/01 00:31:34;;;;;;;;;;;7.60;99.90;7.80;97739.00;;;;339052;28;83520;-89
2022/04/01 00:31:48;;;;;;;;;;;7.60;99.90;7.80;97741.00;;;;340073;28;90409;-89
2022/04/01 00:32:01;;;;;;;;;;;7.50;99.90;7.70;97737.00;;;;339097;28;83548;-89
2022/04/01 00:32:13;;;;;;;;;;;7.50;99.90;7.80;97736.00;;;;340019;28;92517;-89
2022/04/01 00:32:25;;;;;;;;;;;7.50;99.90;7.80;97732.00;;;;339038;28;83405;-88
2022/04/01 00:32:36;;;;;;;;;;;7.50;99.90;7.80;97745.00;;;;338430;28;93033;-89
2022/04/01 00:32:48;;;;;;;;;;;7.50;99.90;7.90;97738.00;;;;339241;28;82437;-89
2022/04/01 00:33:00;;;;;;;;;;;7.50;99.90;7.90;97738.00;;;;338691;28;90246;-89
2022/04/01 00:33:14;;;;;;;;;;;7.50;99.90;7.90;97735.00;;;;339199;28;82462;-89
2022/04/01 00:33:27;;;;;;;;;;;7.50;99.90;8.00;97738.00;;;;337675;28;90651;-89
2022/04/01 00:33:38;;;;;;;;;;;7.50;99.90;7.90;97743.00;;;;338731;28;83444;-89
2022/04/01 00:34:15;;;;;;;;;;;7.50;99.90;7.90;97740.00;;;;339853;28;90731;-89
2022/04/01 00:34:22;;;;;;;;;;;7.50;99.90;7.90;97740.00;;;;339190;28;83405;-89
2022/04/01 00:34:34;;;;;;;;;;;7.50;99.90;7.90;97737.00;;;;346877;28;91680;-89
2022/04/01 00:34:46;;;;;;;;;;;7.50;99.90;7.90;97737.00;;;;347555;28;82497;-89
2022/04/01 00:34:58;;;;;;;;;;;7.50;99.90;7.90;97739.00;;;;339958;28;91475;-89
2022/04/01 00:35:10;;;;;;;;;;;7.50;99.90;8.00;97743.00;;;;340480;28;83498;-89
2022/04/01 00:35:22;;;;;;;;;;;7.50;99.90;7.90;97743.00;;;;337436;28;90387;-89
2022/04/01 00:35:35;;;;;;;;;;;7.50;99.90;7.80;97739.00;;;;340177;28;83361;-88
2022/04/01 00:35:47;;;;;;;;;;;7.50;99.90;7.90;97744.00;;;;340094;28;90609;-89
2022/04/01 00:35:58;;;;;;;;;;;7.50;99.90;7.90;97737.00;;;;339064;28;83502;-89
2022/04/01 00:36:10;;;;;;;;;;;7.50;99.90;7.90;97739.00;;;;338851;28;88935;-89
2022/04/01 00:36:22;;;;;;;;;;;7.50;99.90;8.00;97739.00;;;;337529;28;82500;-89
2022/04/01 00:36:34;;;;;;;;;;;7.50;99.90;7.90;97741.00;;;;341558;28;90267;-89
2022/04/01 00:36:48;;;;;;;;;;;7.50;99.90;8.00;97741.00;;;;340376;28;83670;-89
2022/04/01 00:37:01;;;;;;;;;;;7.50;99.90;8.00;97733.00;;;;338461;28;93687;-89
2022/04/01 00:37:12;;;;;;;;;;;7.50;99.90;7.90;97744.00;;;;337793;28;83521;-89
2022/04/01 00:37:24;;;;;;;;;;;7.50;99.90;7.80;97744.00;;;;336007;28;90719;-89
2022/04/01 00:37:36;;;;;;;;;;;7.50;99.90;7.80;97743.00;;;;339130;28;83390;-89
2022/04/01 00:37:49;;;;;;;;;;;7.50;99.90;7.90;97732.00;;;;340088;28;90554;-89
2022/04/01 00:38:01;;;;;;;;;;;7.50;99.90;7.80;97742.00;;;;339086;28;84211;-89
2022/04/01 00:38:13;;;;;;;;;;;7.50;99.90;7.70;97751.00;;;;336084;28;91578;-89
2022/04/01 00:38:25;;;;;;;;;;;7.40;99.90;7.80;97751.00;;;;336523;28;83523;-89
2022/04/01 00:38:37;;;;;;;;;;;7.40;99.90;7.80;97742.00;;;;340076;28;91310;-89
2022/04/01 00:38:49;;;;;;;;;;;7.40;99.90;7.80;97742.00;;;;337806;28;82477;-89
2022/04/01 00:39:00;;;;;;;;;;;7.40;99.90;7.90;97739.00;;;;338776;28;91647;-89
2022/04/01 00:39:13;;;;;;;;;;;7.40;99.90;7.90;97735.00;;;;341738;28;83296;-89
2022/04/01 00:39:25;;;;;;;;;;;7.40;99.90;7.90;97730.00;;;;342170;27;91705;-89
2022/04/01 00:39:37;;;;;;;;;;;7.40;99.90;7.90;97736.00;;;;344536;28;83466;-89
2022/04/01 00:39:49;;;;;;;;;;;7.40;99.90;7.90;97733.00;;;;342638;28;91663;-89
2022/04/01 00:40:02;;;;;;;;;;;7.40;99.90;7.90;97732.00;;;;340451;28;82640;-89
2022/04/01 00:40:13;;;;;;;;;;;7.40;99.90;7.90;97732.00;;;;340098;28;89195;-89
2022/04/01 00:40:25;;;;;;;;;;;7.40;99.90;7.90;97741.00;;;;338940;28;83404;-89
2022/04/01 00:40:37;;;;;;;;;;;7.50;99.90;7.90;97732.00;;;;338585;28;92337;-89
2022/04/01 00:40:51;;;;;;;;;;;7.50;99.90;7.80;97737.00;;;;339063;28;83243;-89
2022/04/01 00:41:03;;;;;;;;;;;7.40;99.90;7.90;97734.00;;;;336071;28;89663;-89
2022/04/01 00:41:15;;;;;;;;;;;7.50;99.90;7.80;97735.00;;;;340456;28;83460;-89
2022/04/01 00:41:27;;;;;;;;;;;7.40;99.90;7.80;97738.00;;;;338804;28;90384;-89
2022/04/01 00:41:39;;;;;;;;;;;7.40;99.90;7.80;97739.00;;;;338894;28;83580;-89
2022/04/01 00:41:51;;;;;;;;;;;7.40;99.90;7.80;97737.00;;;;340067;28;91608;-89
2022/04/01 00:42:04;;;;;;;;;;;7.40;99.90;7.80;97737.00;;;;337815;28;83563;-89
2022/04/01 00:42:15;;;;;;;;;;;7.40;99.90;7.70;97732.00;;;;337393;28;91540;-89
2022/04/01 00:42:27;;;;;;;;;;;7.40;99.90;7.80;97739.00;;;;341466;28;82805;-89
2022/04/01 00:42:40;;;;;;;;;;;7.40;99.90;7.60;97724.00;;;;338005;28;90356;-89
2022/04/01 00:42:52;;;;;;;;;;;7.40;99.90;7.60;97739.00;;;;341697;28;82565;-89
2022/04/01 00:43:04;;;;;;;;;;;7.40;99.90;7.70;97736.00;;;;338637;28;91499;-90
2022/04/01 00:43:16;;;;;;;;;;;7.30;99.90;7.80;97740.00;;;;340409;28;83487;-89
2022/04/01 00:43:30;;;;;;;;;;;7.30;99.90;7.70;97741.00;;;;337852;28;91240;-89
2022/04/01 00:43:41;;;;;;;;;;;7.30;99.90;7.70;97743.00;;;;339229;28;83261;-89
2022/04/01 00:44:25;;;;;;;;;;;7.30;99.90;7.80;97736.00;;;;344274;28;91236;-89
2022/04/01 00:44:37;;;;;;;;;;;7.30;99.90;7.80;97740.00;;;;343263;28;83589;-90
2022/04/01 00:44:49;;;;;;;;;;;7.30;99.90;7.80;97735.00;;;;347014;28;91336;-89
2022/04/01 00:45:03;;;;;;;;;;;7.30;99.90;7.80;97734.00;;;;339131;28;83424;-90
2022/04/01 00:45:16;;;;;;;;;;;7.30;99.90;7.80;97729.00;;;;337207;28;88793;-89
2022/04/01 00:45:28;;;;;;;;;;;7.30;99.90;7.80;97729.00;;;;339934;28;82732;-89
2022/04/01 00:45:40;;;;;;;;;;;7.30;99.90;7.80;97737.00;;;;339891;28;92258;-90
2022/04/01 00:45:52;;;;;;;;;;;7.30;99.90;7.80;97736.00;;;;337655;28;83367;-89
2022/04/01 00:46:03;;;;;;;;;;;7.40;99.90;7.80;97727.00;;;;338712;28;90849;-89
2022/04/01 00:46:15;;;;;;;;;;;7.40;99.90;7.80;97733.00;;;;337892;28;83282;-89
2022/04/01 00:46:27;;;;;;;;;;;7.40;99.90;7.80;97741.00;;;;337607;28;89685;-89
2022/04/01 00:46:43;;;;;;;;;;;7.40;99.90;7.80;97729.00;;;;337728;28;83373;-90
2022/04/01 00:46:59;;;;;;;;;;;7.40;99.90;7.90;97728.00;;;;338495;28;90749;-90
2022/04/01 00:47:14;;;;;;;;;;;7.40;99.90;7.90;97734.00;;;;339052;28;83514;-90
2022/04/01 00:47:26;;;;;;;;;;;7.40;99.90;7.80;97732.00;;;;337205;28;91456;-90
2022/04/01 00:47:40;;;;;;;;;;;7.40;99.90;7.90;97731.00;;;;337804;28;82488;-90
2022/04/01 00:47:55;;;;;;;;;;;7.40;99.90;7.80;97737.00;;;;345640;28;92203;-90
2022/04/01 00:48:07;;;;;;;;;;;7.40;99.90;7.90;97731.00;;;;344606;28;83489;-90
2022/04/01 00:48:20;;;;;;;;;;;7.40;99.90;7.70;97736.00;;;;338828;28;90553;-90
2022/04/01 00:48:31;;;;;;;;;;;7.40;99.90;7.80;97735.00;;;;348517;27;83612;-90
2022/04/01 00:48:43;;;;;;;;;;;7.40;99.90;7.60;97741.00;;;;344236;28;92135;-90
2022/04/01 00:48:55;;;;;;;;;;;7.40;99.90;7.60;97739.00;;;;340836;28;82350;-90
2022/04/01 00:49:07;;;;;;;;;;;7.30;99.90;7.50;97728.00;;;;338704;28;92182;-90
2022/04/01 00:49:20;;;;;;;;;;;7.30;99.90;7.40;97740.00;;;;339077;28;83529;-90
2022/04/01 00:49:31;;;;;;;;;;;7.20;99.90;7.50;97729.00;;;;340035;28;90340;-89
2022/04/01 00:49:44;;;;;;;;;;;7.20;99.90;7.60;97733.00;;;;340461;28;82525;-90
2022/04/01 00:49:56;;;;;;;;;;;7.20;99.90;7.60;97732.00;;;;342638;28;91316;-89
2022/04/01 00:50:08;;;;;;;;;;;7.20;99.90;7.50;97744.00;;;;339120;28;83422;-90
2022/04/01 00:50:20;;;;;;;;;;;7.20;99.90;7.50;97740.00;;;;337448;28;91559;-90
2022/04/01 00:50:32;;;;;;;;;;;7.20;99.90;7.50;97735.00;;;;339257;28;83363;-90
2022/04/01 00:50:43;;;;;;;;;;;7.20;99.90;7.50;97737.00;;;;341303;27;91393;-89
2022/04/01 00:50:55;;;;;;;;;;;7.20;99.90;7.50;97740.00;;;;338873;28;83383;-90
2022/04/01 00:51:07;;;;;;;;;;;7.20;99.90;7.50;97732.00;;;;340071;28;90566;-89
2022/04/01 00:51:19;;;;;;;;;;;7.20;99.90;7.50;97733.00;;;;337871;28;82554;-90
2022/04/01 00:51:31;;;;;;;;;;;7.20;99.90;7.40;97736.00;;;;343088;28;96218;-90
2022/04/01 00:51:43;;;;;;;;;;;7.20;99.90;7.40;97731.00;;;;341241;28;82584;-90
2022/04/01 00:51:56;;;;;;;;;;;7.20;99.90;7.50;97730.00;;;;343410;27;92501;-90
2022/04/01 00:52:10;;;;;;;;;;;7.10;99.90;7.50;97739.00;;;;347150;28;83525;-90
2022/04/01 00:52:22;;;;;;;;;;;7.10;99.90;7.50;97736.00;;;;344414;28;88817;-90
2022/04/01 00:52:34;;;;;;;;;;;7.10;99.90;7.50;97734.00;;;;347392;28;82561;-89
2022/04/01 00:52:46;;;;;;;;;;;7.10;99.90;7.40;97738.00;;;;347016;28;91787;-89
2022/04/01 00:52:58;;;;;;;;;;;7.10;99.90;7.50;97732.00;;;;347505;27;82544;-89
2022/04/01 00:53:10;;;;;;;;;;;7.10;99.90;7.50;97730.00;;;;345437;28;90288;-90
2022/04/01 00:53:22;;;;;;;;;;;7.10;99.90;7.40;97734.00;;;;344670;28;83407;-89
2022/04/01 00:53:34;;;;;;;;;;;7.10;99.90;7.30;97728.00;;;;345455;28;90651;-90
2022/04/01 00:53:45;;;;;;;;;;;7.10;99.90;7.40;97728.00;;;;348891;27;83476;-90
2022/04/01 00:53:58;;;;;;;;;;;7.10;99.90;7.40;97731.00;;;;346857;28;91459;-89
2022/04/01 00:54:10;;;;;;;;;;;7.10;99.90;7.40;97726.00;;;;346070;28;83858;-89
2022/04/01 00:54:22;;;;;;;;;;;7.10;99.90;7.40;97721.00;;;;346871;28;91512;-89
2022/04/01 00:54:35;;;;;;;;;;;7.00;99.90;7.40;97742.00;;;;344983;28;83555;-90
2022/04/01 00:54:47;;;;;;;;;;;7.00;99.90;7.40;97737.00;;;;345661;28;90714;-90
2022/04/01 00:55:00;;;;;;;;;;;7.00;99.90;7.40;97733.00;;;;346919;28;83483;-90
2022/04/01 00:55:11;;;;;;;;;;;7.00;99.90;7.30;97729.00;;;;345611;28;92387;-90
2022/04/01 00:55:23;;;;;;;;;;;7.00;99.90;7.30;97731.00;;;;348864;27;83548;-89
2022/04/01 00:55:35;;;;;;;;;;;7.00;99.90;7.40;97740.00;;;;347043;28;91460;-90
2022/04/01 00:55:47;;;;;;;;;;;7.00;99.90;7.40;97732.00;;;;347571;28;82542;-90
2022/04/01 00:55:59;;;;;;;;;;;7.00;99.90;7.40;97722.00;;;;345525;28;92217;-89
2022/04/01 00:56:10;;;;;;;;;;;7.00;99.90;7.40;97736.00;;;;348910;27;83371;-89
2022/04/01 00:56:23;;;;;;;;;;;7.00;99.90;7.40;97730.00;;;;347087;28;91121;-89
2022/04/01 00:56:35;;;;;;;;;;;7.00;99.90;7.40;97728.00;;;;347449;28;82546;-90
2022/04/01 00:56:47;;;;;;;;;;;7.00;99.90;7.30;97729.00;;;;348482;27;90278;-90
2022/04/01 00:56:59;;;;;;;;;;;7.00;99.90;7.30;97731.00;;;;346134;28;82533;-89
2022/04/01 00:57:11;;;;;;;;;;;7.00;99.90;7.30;97735.00;;;;347001;28;91135;-89
2022/04/01 00:57:25;;;;;;;;;;;6.90;99.90;7.30;97728.00;;;;345616;28;83485;-89
2022/04/01 00:57:37;;;;;;;;;;;6.90;99.90;7.20;97731.00;;;;348196;27;91668;-89
2022/04/01 00:57:49;;;;;;;;;;;6.90;99.90;7.20;97732.00;;;;347370;28;83549;-89
2022/04/01 00:58:03;;;;;;;;;;;6.90;99.90;7.10;97730.00;;;;345278;28;92924;-89
2022/04/01 00:58:14;;;;;;;;;;;6.90;99.90;7.10;97736.00;;;;347440;28;83320;-90
2022/04/01 00:58:26;;;;;;;;;;;6.80;99.90;7.10;97724.00;;;;346968;28;90612;-89
2022/04/01 00:58:38;;;;;;;;;;;6.80;99.90;7.10;97722.00;;;;346097;28;83573;-89
2022/04/01 00:58:51;;;;;;;;;;;6.80;99.90;7.10;97735.00;;;;345645;28;89062;-90
2022/04/01 00:59:03;;;;;;;;;;;6.80;99.90;7.10;97730.00;;;;348953;27;83368;-90
2022/04/01 00:59:14;;;;;;;;;;;6.80;99.90;7.10;97733.00;;;;347026;28;90423;-89
2022/04/01 00:59:26;;;;;;;;;;;6.80;99.90;7.10;97732.00;;;;346218;28;83516;-90
2022/04/01 00:59:38;;;;;;;;;;;6.80;99.90;6.90;97733.00;;;;345508;28;91170;-90
2022/04/01 00:59:50;;;;;;;;;;;6.80;99.90;7.00;97723.00;;;;345874;28;83447;-89
2022/04/01 01:00:04;;;;;;;;;;;6.70;99.90;7.10;97727.00;;;;346936;28;92769;-89
2022/04/01 01:00:22;;;;;;;;;;;6.70;99.90;7.10;97729.00;;;;344407;28;82847;-89
2022/04/01 01:00:35;;;;;;;;;;;6.70;99.90;7.10;97734.00;;;;346698;28;91840;-89
2022/04/01 01:00:47;;;;;;;;;;;6.70;99.90;7.10;97725.00;;;;347243;28;83505;-89
2022/04/01 01:01:00;;;;;;;;;;;6.70;99.90;7.10;97735.00;;;;347891;27;90604;-90
2022/04/01 01:01:12;;;;;;;;;;;6.70;99.90;7.00;97727.00;;;;344683;28;82428;-89
2022/04/01 01:01:24;;;;;;;;;;;6.70;99.90;7.00;97732.00;;;;348417;27;90630;-89
2022/04/01 01:01:37;;;;;;;;;;;6.70;99.90;6.90;97734.00;;;;349874;27;82398;-89
2022/04/01 01:01:53;;;;;;;;;;;6.60;99.90;6.90;97743.00;;;;347843;28;91250;-89
2022/04/01 01:02:05;;;;;;;;;;;6.60;99.90;6.90;97731.00;;;;349688;27;83399;-90
2022/04/01 01:02:18;;;;;;;;;;;6.60;99.90;7.00;97735.00;;;;347706;28;91589;-89
2022/04/01 01:02:30;;;;;;;;;;;6.60;99.90;6.90;97722.00;;;;347822;28;82587;-89
2022/04/01 01:02:42;;;;;;;;;;;6.60;99.90;6.80;97716.00;;;;347388;28;89582;-89
2022/04/01 01:03:01;;;;;;;;;;;6.50;99.90;6.90;97737.00;;;;349458;27;83350;-89